Terminal Aerodrome Forecast
Issued by NWS Quad Cities IA IL

Home | Current Version | Previous Version | Text Only | Print | Product List | Glossary On
Versions: 1 2 3 4 5 6 7 8 9 10 11 12 13
000
FTUS43 KDVN 221137
TAFDBQ
TAF
KDBQ 221137Z 2212/2312 20007KT P6SM SCT250
     FM221600 18013G18KT P6SM FEW250
     FM230200 15006KT P6SM SKC=

USA.gov is the U.S. government's official web portal to all federal, state and local government web resources and services.